createdAt,value
2019-01-28T13:00:17.489Z,936
2019-01-28T13:00:37.513Z,948
2019-01-28T13:00:57.940Z,924
2019-01-28T13:01:18.063Z,928
2019-01-28T13:01:38.961Z,924
2019-01-28T13:01:59.157Z,932
2019-01-28T13:02:19.265Z,956
2019-01-28T13:02:39.379Z,952
2019-01-28T13:03:01.905Z,968
2019-01-28T13:03:21.992Z,972
2019-01-28T13:03:42.130Z,956
2019-01-28T13:04:02.502Z,936
2019-01-28T13:04:23.274Z,980
2019-01-28T13:04:49.515Z,972
2019-01-28T13:05:09.585Z,944
2019-01-28T13:05:29.875Z,908
2019-01-28T13:05:49.993Z,888
2019-01-28T13:06:10.111Z,876
2019-01-28T13:06:30.316Z,868
2019-01-28T13:06:50.501Z,856
2019-01-28T13:07:10.641Z,868
2019-01-28T13:07:30.793Z,860
2019-01-28T13:07:50.904Z,864
2019-01-28T13:08:10.944Z,864
2019-01-28T13:08:32.778Z,876
2019-01-28T13:08:52.852Z,976
2019-01-28T13:09:14.161Z,928
2019-01-28T13:09:34.454Z,956
2019-01-28T13:09:54.634Z,980
2019-01-28T13:10:14.707Z,1000
2019-01-28T13:10:35.691Z,992
2019-01-28T13:10:55.823Z,992
2019-01-28T13:11:16.047Z,1040
2019-01-28T13:11:36.166Z,1068
2019-01-28T13:11:56.314Z,1108
2019-01-28T13:12:16.403Z,1100
2019-01-28T13:12:36.589Z,1072
2019-01-28T13:12:56.823Z,1060
2019-01-28T13:13:17.003Z,1044
2019-01-28T13:13:41.051Z,1068
2019-01-28T13:14:01.450Z,1096
2019-01-28T13:14:21.683Z,1120
2019-01-28T13:14:41.793Z,1076
2019-01-28T13:15:02.006Z,1008
2019-01-28T13:15:22.239Z,952
2019-01-28T13:15:42.427Z,960
2019-01-28T13:16:02.523Z,944
2019-01-28T13:16:22.683Z,888
2019-01-28T13:16:42.868Z,876
2019-01-28T13:17:02.947Z,868
2019-01-28T13:17:23.047Z,848
2019-01-28T13:17:44.034Z,840
2019-01-28T13:18:04.229Z,832
2019-01-28T13:18:25.494Z,856
2019-01-28T13:18:45.729Z,868
2019-01-28T13:19:05.858Z,864
2019-01-28T13:19:32.663Z,888
2019-01-28T13:19:53.713Z,896
2019-01-28T13:20:13.969Z,896
2019-01-28T13:20:34.202Z,904
2019-01-28T13:20:55.262Z,928
2019-01-28T13:21:15.436Z,944
2019-01-28T13:21:35.839Z,924
2019-01-28T13:21:56.103Z,956
2019-01-28T13:22:16.228Z,932
2019-01-28T13:22:44.609Z,984
2019-01-28T13:23:05.004Z,1616
2019-01-28T13:23:25.266Z,2012
2019-01-28T13:23:45.553Z,1848
2019-01-28T13:24:05.824Z,1016
2019-01-28T13:24:25.956Z,992
2019-01-28T13:24:46.139Z,992
2019-01-28T13:25:06.219Z,1000
2019-01-28T13:25:30.708Z,984
2019-01-28T13:25:50.838Z,980
2019-01-28T13:26:10.931Z,980
2019-01-28T13:26:32.172Z,972
2019-01-28T13:26:52.324Z,980
2019-01-28T13:27:12.417Z,972
2019-01-28T13:27:32.614Z,964
2019-01-28T13:27:52.768Z,964
2019-01-28T13:28:12.827Z,952
2019-01-28T13:28:33.026Z,944
2019-01-28T13:28:53.231Z,932
2019-01-28T13:29:13.312Z,928
2019-01-28T13:29:33.373Z,940
2019-01-28T13:29:53.490Z,960
2019-01-28T13:30:15.281Z,972
2019-01-28T13:30:35.402Z,976
2019-01-28T13:30:55.558Z,1000
2019-01-28T13:31:15.658Z,1008
2019-01-28T13:31:40.601Z,1000
2019-01-28T13:32:00.814Z,992
2019-01-28T13:32:20.913Z,1004
2019-01-28T13:32:41.115Z,1008
2019-01-28T13:33:01.365Z,1016
2019-01-28T13:33:21.434Z,992
2019-01-28T13:33:41.630Z,972
2019-01-28T13:34:02.428Z,956
2019-01-28T13:34:22.626Z,952
2019-01-28T13:34:42.741Z,992
2019-01-28T13:35:02.940Z,1000
2019-01-28T13:35:23.145Z,992
2019-01-28T13:35:43.294Z,936
2019-01-28T13:36:07.289Z,912
2019-01-28T13:36:29.262Z,880
2019-01-28T13:36:49.495Z,876
2019-01-28T13:37:09.641Z,896
2019-01-28T13:37:29.815Z,912
2019-01-28T13:37:50.418Z,912
2019-01-28T13:38:10.665Z,900
2019-01-28T13:38:30.832Z,900
2019-01-28T13:38:50.967Z,924
2019-01-28T13:39:11.052Z,924
2019-01-28T13:39:31.642Z,928
2019-01-28T13:39:51.970Z,908
2019-01-28T13:40:12.326Z,884
2019-01-28T13:40:32.447Z,876
2019-01-28T13:40:52.730Z,912
2019-01-28T13:41:12.912Z,900
2019-01-28T13:41:33.091Z,868
2019-01-28T13:41:54.783Z,832
2019-01-28T13:42:14.963Z,852
2019-01-28T13:42:35.051Z,832
2019-01-28T13:42:55.161Z,788
2019-01-28T13:43:15.261Z,792
2019-01-28T13:43:35.420Z,808
2019-01-28T13:43:55.582Z,804
2019-01-28T13:44:15.814Z,784
2019-01-28T13:44:36.016Z,772
2019-01-28T13:44:56.701Z,760
2019-01-28T13:45:16.775Z,752
2019-01-28T13:45:36.927Z,720
2019-01-28T13:45:57.037Z,700
2019-01-28T13:46:17.173Z,676
2019-01-28T13:46:37.295Z,660
2019-01-28T13:46:57.465Z,628
2019-01-28T13:47:17.624Z,588
2019-01-28T13:47:37.850Z,556
2019-01-28T13:47:58.108Z,536
2019-01-28T13:48:18.253Z,512
2019-01-28T13:48:38.466Z,496
2019-01-28T13:48:58.588Z,476
2019-01-28T13:49:18.611Z,460
2019-01-28T13:49:45.717Z,500
2019-01-28T13:50:05.858Z,488
2019-01-28T13:50:26.075Z,520
2019-01-28T13:50:46.197Z,740
2019-01-28T13:51:06.613Z,572
2019-01-28T13:51:26.742Z,548
2019-01-28T13:51:46.874Z,552
2019-01-28T13:52:07.055Z,548
2019-01-28T13:52:27.151Z,528
2019-01-28T13:52:49.261Z,512
2019-01-28T13:53:09.939Z,508
2019-01-28T13:53:30.057Z,512
2019-01-28T13:53:50.148Z,548
2019-01-28T13:54:10.238Z,540
2019-01-28T13:54:30.512Z,564
2019-01-28T13:54:50.679Z,580
2019-01-28T13:55:10.815Z,572
2019-01-28T13:55:30.908Z,568
2019-01-28T13:55:51.184Z,568
2019-01-28T13:56:11.340Z,564
2019-01-28T13:56:33.000Z,568
2019-01-28T13:56:53.249Z,568
2019-01-28T13:57:13.379Z,556
2019-01-28T13:57:33.551Z,536
2019-01-28T13:57:54.325Z,528
2019-01-28T13:58:14.503Z,512
2019-01-28T13:58:34.640Z,496
2019-01-28T13:58:56.568Z,496
2019-01-28T13:59:23.774Z,516
2019-01-28T13:59:43.939Z,520
2019-01-28T14:00:04.159Z,504
2019-01-28T14:00:24.348Z,500
2019-01-28T14:00:44.485Z,528
2019-01-28T14:01:04.638Z,552
2019-01-28T14:01:24.937Z,544
2019-01-28T14:01:45.006Z,520
2019-01-28T14:02:05.203Z,508
2019-01-28T14:02:25.385Z,500
2019-01-28T14:02:45.480Z,484
2019-01-28T14:03:06.176Z,476
2019-01-28T14:03:26.281Z,488
2019-01-28T14:03:46.342Z,512
2019-01-28T14:04:08.404Z,544
2019-01-28T14:04:28.474Z,556
2019-01-28T14:04:48.642Z,556
2019-01-28T14:05:08.733Z,560
2019-01-28T14:05:28.877Z,560
2019-01-28T14:05:49.001Z,568
2019-01-28T14:06:09.181Z,556
2019-01-28T14:06:29.335Z,540
2019-01-28T14:06:49.502Z,528
2019-01-28T14:07:09.594Z,532
2019-01-28T14:07:29.749Z,540
2019-01-28T14:07:49.856Z,544
2019-01-28T14:08:10.025Z,536
2019-01-28T14:08:30.078Z,536
2019-01-28T14:08:50.347Z,536
2019-01-28T14:09:10.506Z,532
2019-01-28T14:09:30.621Z,544
2019-01-28T14:09:50.740Z,564
2019-01-28T14:10:10.922Z,588
2019-01-28T14:10:31.000Z,608
2019-01-28T14:10:51.157Z,940
2019-01-28T14:11:11.253Z,1124
2019-01-28T14:11:31.418Z,1196
2019-01-28T14:11:51.529Z,1148
2019-01-28T14:12:11.576Z,1004
2019-01-28T14:12:31.697Z,704
2019-01-28T14:12:51.787Z,644
2019-01-28T14:13:11.986Z,648
2019-01-28T14:13:32.243Z,672
2019-01-28T14:13:52.374Z,676
2019-01-28T14:14:12.511Z,660
2019-01-28T14:14:32.800Z,624
2019-01-28T14:14:52.953Z,604
2019-01-28T14:15:13.163Z,596
2019-01-28T14:15:33.307Z,596
2019-01-28T14:15:53.543Z,592
2019-01-28T14:16:13.707Z,588
2019-01-28T14:16:33.863Z,572
2019-01-28T14:16:54.051Z,560
2019-01-28T14:17:14.130Z,552
2019-01-28T14:17:34.885Z,536
2019-01-28T14:17:55.124Z,524
2019-01-28T14:18:15.232Z,508
2019-01-28T14:18:35.406Z,492
2019-01-28T14:18:55.496Z,480
2019-01-28T14:19:15.714Z,468
2019-01-28T14:19:35.923Z,452
2019-01-28T14:20:03.952Z,436
2019-01-28T14:20:24.205Z,436
2019-01-28T14:20:44.521Z,436
2019-01-28T14:21:08.344Z,420
2019-01-28T14:21:28.586Z,412
2019-01-28T14:21:48.830Z,404
2019-01-28T14:22:09.069Z,432
2019-01-28T14:22:29.280Z,628
2019-01-28T14:22:49.461Z,576
2019-01-28T14:23:09.555Z,384
2019-01-28T14:23:31.515Z,388
2019-01-28T14:23:51.673Z,380
2019-01-28T14:24:11.774Z,372
2019-01-28T14:24:31.853Z,364
2019-01-28T14:24:52.084Z,380
2019-01-28T14:25:12.347Z,372
2019-01-28T14:25:32.405Z,368
2019-01-28T14:25:52.558Z,380
2019-01-28T14:26:12.638Z,400
2019-01-28T14:26:32.715Z,388
2019-01-28T14:26:52.805Z,376
2019-01-28T14:27:12.962Z,380
2019-01-28T14:27:33.037Z,396
2019-01-28T14:27:57.154Z,396
2019-01-28T14:28:20.485Z,396
2019-01-28T14:28:40.508Z,392
2019-01-28T14:29:01.309Z,392
2019-01-28T14:29:21.448Z,388
2019-01-28T14:29:41.730Z,392
2019-01-28T14:30:01.938Z,396
2019-01-28T14:30:22.111Z,388
